createdAt,value
2018-06-24T00:04:24.239Z,46.23
2018-06-24T00:07:09.284Z,45.78
2018-06-24T00:09:56.434Z,47.04
2018-06-24T00:12:35.573Z,47.20
2018-06-24T00:17:51.496Z,45.68
2018-06-24T00:20:31.657Z,45.55
2018-06-24T00:23:08.780Z,46.65
2018-06-24T00:25:50.647Z,47.20
2018-06-24T00:28:32.413Z,47.33
2018-06-24T00:37:18.068Z,47.27
2018-06-24T00:39:47.610Z,47.36
2018-06-24T00:42:17.260Z,47.28
2018-06-24T00:44:46.901Z,47.55
2018-06-24T00:47:16.500Z,47.85
2018-06-24T00:49:46.072Z,47.73
2018-06-24T00:52:18.842Z,47.10
2018-06-24T00:54:48.574Z,48.34
2018-06-24T00:57:21.381Z,48.61
2018-06-24T01:00:03.260Z,47.97
2018-06-24T01:02:32.876Z,49.55
2018-06-24T01:05:02.695Z,49.02
2018-06-24T01:07:32.356Z,48.27
2018-06-24T01:10:08.706Z,49.02
2018-06-24T01:12:38.438Z,48.57
2018-06-24T01:15:08.242Z,49.25
2018-06-24T01:17:38.173Z,47.23
2018-06-24T01:20:07.859Z,46.63
2018-06-24T01:22:38.744Z,45.38
2018-06-24T01:25:08.388Z,47.64
2018-06-24T01:27:38.906Z,48.13
2018-06-24T01:30:08.518Z,47.87
2018-06-24T01:32:38.095Z,48.27
2018-06-24T01:35:07.788Z,48.18
2018-06-24T01:37:38.291Z,48.32
2018-06-24T01:40:08.000Z,48.16
2018-06-24T01:42:37.653Z,48.03
2018-06-24T01:45:07.358Z,47.83
2018-06-24T01:47:37.142Z,46.55
2018-06-24T01:50:06.986Z,46.23
2018-06-24T01:52:37.865Z,46.42
2018-06-24T01:55:07.574Z,46.95
2018-06-24T01:57:37.232Z,47.42
2018-06-24T02:00:07.740Z,47.19
2018-06-24T02:02:37.655Z,46.61
2018-06-24T02:05:07.744Z,46.29
2018-06-24T02:07:38.083Z,47.61
2018-06-24T02:10:07.997Z,48.58
2018-06-24T02:12:38.357Z,49.06
2018-06-24T02:15:08.086Z,48.98
2018-06-24T02:17:38.221Z,48.90
2018-06-24T02:20:07.859Z,47.86
2018-06-24T02:22:38.214Z,48.33
2018-06-24T02:25:07.813Z,48.94
2018-06-24T02:27:37.481Z,47.82
2018-06-24T02:30:07.165Z,47.58
2018-06-24T02:32:37.044Z,48.47
2018-06-24T02:35:06.691Z,48.48
2018-06-24T02:37:36.383Z,47.74
2018-06-24T02:40:06.070Z,45.89
2018-06-24T02:42:37.382Z,46.91
2018-06-24T02:45:07.497Z,46.75
2018-06-24T02:47:37.177Z,46.33
2018-06-24T02:50:07.964Z,45.79
2018-06-24T02:52:39.880Z,45.38
2018-06-24T02:55:09.966Z,46.14
2018-06-24T02:57:39.617Z,45.72
2018-06-24T03:00:09.390Z,46.37
2018-06-24T03:05:15.433Z,46.63
2018-06-24T03:07:45.150Z,46.55
2018-06-24T03:10:14.839Z,47.34
2018-06-24T03:12:45.705Z,46.87
2018-06-24T03:15:15.785Z,46.93
2018-06-24T03:17:45.545Z,47.58
2018-06-24T03:20:15.773Z,47.40
2018-06-24T03:22:51.146Z,48.14
2018-06-24T03:25:21.726Z,48.04
2018-06-24T03:27:51.335Z,46.84
2018-06-24T03:30:21.988Z,47.18
2018-06-24T03:32:51.885Z,47.13
2018-06-24T03:37:56.919Z,47.72
2018-06-24T03:40:26.650Z,49.28
2018-06-24T03:42:57.342Z,49.84
2018-06-24T03:45:27.153Z,48.74
2018-06-24T03:47:56.777Z,48.51
2018-06-24T03:50:27.705Z,49.24
2018-06-24T03:53:01.011Z,49.57
2018-06-24T03:55:30.868Z,47.42
2018-06-24T03:58:00.598Z,47.07
2018-06-24T04:00:30.242Z,47.04
2018-06-24T04:03:02.764Z,47.01
2018-06-24T04:05:33.108Z,47.72
2018-06-24T04:08:02.875Z,47.28
2018-06-24T04:10:32.503Z,47.23
2018-06-24T04:13:03.626Z,47.45
2018-06-24T04:15:34.089Z,47.48
2018-06-24T04:20:39.061Z,47.90
2018-06-24T04:23:10.096Z,48.81
2018-06-24T04:25:39.777Z,49.24
2018-06-24T04:28:09.422Z,49.50
2018-06-24T04:30:39.086Z,49.39
2018-06-24T04:35:45.553Z,49.04
2018-06-24T04:38:15.857Z,48.33
2018-06-24T04:40:45.480Z,49.51
2018-06-24T04:43:15.979Z,49.27
2018-06-24T04:45:45.676Z,47.24
2018-06-24T04:48:15.348Z,47.89
2018-06-24T04:50:45.016Z,48.23
2018-06-24T04:53:16.285Z,49.64
2018-06-24T04:55:46.674Z,49.89
2018-06-24T04:58:16.380Z,49.75
2018-06-24T05:00:46.540Z,47.79
2018-06-24T05:03:16.769Z,48.83
2018-06-24T05:05:46.460Z,49.12
2018-06-24T05:08:16.144Z,48.37
2018-06-24T05:10:46.153Z,48.66
2018-06-24T05:13:15.799Z,49.20
2018-06-24T05:15:46.293Z,50.04
2018-06-24T05:18:15.928Z,50.87
2018-06-24T05:20:45.877Z,50.71
2018-06-24T05:23:15.597Z,50.53
2018-06-24T05:25:45.289Z,50.43
2018-06-24T05:28:14.982Z,51.08
2018-06-24T05:30:44.677Z,51.29
2018-06-24T05:33:14.571Z,50.62
2018-06-24T05:35:44.289Z,49.65
2018-06-24T05:38:13.996Z,49.67
2018-06-24T05:40:43.901Z,50.67
2018-06-24T05:43:13.617Z,50.95
2018-06-24T05:45:43.437Z,49.78
2018-06-24T05:48:13.112Z,49.79
2018-06-24T05:50:42.807Z,50.46
2018-06-24T05:53:12.450Z,50.08
2018-06-24T05:55:42.075Z,50.94
2018-06-24T05:58:11.937Z,50.29
2018-06-24T06:00:41.561Z,49.40
2018-06-24T06:03:11.772Z,48.28
2018-06-24T06:05:41.402Z,47.79
2018-06-24T06:08:11.112Z,47.14
2018-06-24T06:10:40.957Z,47.72
2018-06-24T06:13:10.630Z,46.69
2018-06-24T06:15:40.236Z,46.86
2018-06-24T06:18:10.601Z,46.52
2018-06-24T06:23:15.621Z,45.64
2018-06-24T06:25:45.270Z,46.76
2018-06-24T06:28:17.250Z,48.07
2018-06-24T06:30:49.393Z,46.21
2018-06-24T06:33:20.070Z,45.09
2018-06-24T06:35:49.802Z,41.43
2018-06-24T06:38:19.477Z,40.79
2018-06-24T06:40:53.657Z,40.74
2018-06-24T06:43:24.798Z,40.77
2018-06-24T06:45:55.825Z,42.94
2018-06-24T06:48:25.508Z,42.20
2018-06-24T06:50:57.549Z,43.04
2018-06-24T06:53:28.073Z,42.43
2018-06-24T06:55:58.097Z,43.11
2018-06-24T06:58:29.152Z,42.29
2018-06-24T07:00:59.580Z,42.38
2018-06-24T07:03:29.218Z,41.81
2018-06-24T07:05:59.577Z,41.01
2018-06-24T07:08:29.352Z,41.00
2018-06-24T07:10:59.112Z,40.70
2018-06-24T07:13:28.906Z,41.93
2018-06-24T07:15:58.545Z,41.78
2018-06-24T07:18:28.304Z,43.49
2018-06-24T07:23:35.940Z,41.19
2018-06-24T07:28:42.261Z,41.22
2018-06-24T07:31:12.300Z,41.95
2018-06-24T07:33:42.778Z,41.76
2018-06-24T07:36:13.125Z,41.94
2018-06-24T07:38:43.990Z,41.78
2018-06-24T07:41:15.046Z,41.43
2018-06-24T07:43:45.821Z,40.45
2018-06-24T07:46:15.684Z,41.04
2018-06-24T07:48:45.713Z,42.40
2018-06-24T07:51:16.741Z,41.33
2018-06-24T07:53:48.480Z,40.36
2018-06-24T07:56:19.585Z,39.24
2018-06-24T07:58:50.492Z,39.06
2018-06-24T08:01:20.048Z,40.10
2018-06-24T08:03:50.318Z,39.25
2018-06-24T08:08:56.097Z,37.46
2018-06-24T08:11:26.789Z,38.37
2018-06-24T08:13:57.856Z,38.71
2018-06-24T08:16:29.695Z,38.97
2018-06-24T08:19:01.783Z,38.66
2018-06-24T08:21:31.410Z,38.34
2018-06-24T08:24:02.681Z,38.50
2018-06-24T08:26:33.841Z,39.76
2018-06-24T08:29:04.554Z,40.02
2018-06-24T08:31:35.769Z,40.17
2018-06-24T08:36:43.324Z,38.71
2018-06-24T08:39:13.313Z,38.44
2018-06-24T08:41:43.556Z,40.13
2018-06-24T08:44:14.199Z,39.64
2018-06-24T08:46:44.890Z,39.26
2018-06-24T08:49:14.817Z,40.59
2018-06-24T08:51:45.170Z,39.45
2018-06-24T08:54:15.468Z,40.28
2018-06-24T08:56:46.254Z,39.74
2018-06-24T08:59:16.332Z,38.47
2018-06-24T09:01:46.525Z,39.40
2018-06-24T09:04:16.865Z,39.49
2018-06-24T09:06:47.041Z,38.81
2018-06-24T09:09:17.165Z,38.29
2018-06-24T09:11:47.580Z,40.28
2018-06-24T09:14:19.891Z,37.70
2018-06-24T09:16:50.249Z,37.29
2018-06-24T09:19:20.879Z,35.66
2018-06-24T09:21:53.068Z,37.45
2018-06-24T09:24:24.132Z,38.37
2018-06-24T09:26:53.849Z,36.31
2018-06-24T09:29:24.501Z,38.11
2018-06-24T09:31:56.018Z,38.36
2018-06-24T09:34:26.077Z,37.98
2018-06-24T09:36:56.072Z,40.15
2018-06-24T09:39:26.425Z,35.93
2018-06-24T09:41:56.137Z,37.13
2018-06-24T09:44:26.101Z,36.66
2018-06-24T09:46:56.241Z,35.56
2018-06-24T09:49:26.084Z,34.11
2018-06-24T09:51:56.279Z,35.35
2018-06-24T09:54:26.208Z,36.40
2018-06-24T09:57:05.871Z,37.06
2018-06-24T09:59:36.581Z,35.22
2018-06-24T10:02:07.070Z,37.26
2018-06-24T10:04:38.016Z,36.33
2018-06-24T10:07:09.348Z,38.16
2018-06-24T10:09:39.008Z,34.93
2018-06-24T10:12:09.411Z,36.66
2018-06-24T10:14:39.789Z,35.12
2018-06-24T10:17:10.141Z,34.91
2018-06-24T10:19:40.085Z,37.19
2018-06-24T10:22:09.965Z,34.77
2018-06-24T10:24:39.994Z,37.97
2018-06-24T10:27:10.548Z,36.23
2018-06-24T10:29:40.442Z,35.49
2018-06-24T10:32:10.059Z,36.88
2018-06-24T10:34:40.395Z,38.32
2018-06-24T10:37:10.236Z,37.62
2018-06-24T10:39:40.369Z,35.37
2018-06-24T10:42:10.683Z,36.32
2018-06-24T10:44:41.288Z,34.78
2018-06-24T10:47:12.285Z,33.89
2018-06-24T10:49:42.800Z,33.09
2018-06-24T10:52:13.241Z,34.60
2018-06-24T10:54:43.776Z,35.90
2018-06-24T10:57:14.283Z,35.18
2018-06-24T10:59:46.041Z,31.25
2018-06-24T11:02:17.619Z,33.17
2018-06-24T11:04:49.994Z,32.64
2018-06-24T11:07:21.068Z,32.29
2018-06-24T11:09:51.456Z,32.81
2018-06-24T11:12:21.831Z,30.54
2018-06-24T11:14:52.409Z,31.53
2018-06-24T11:17:22.443Z,32.53
2018-06-24T11:19:52.582Z,32.43
2018-06-24T11:22:22.706Z,28.61
2018-06-24T11:27:29.943Z,30.68
2018-06-24T11:29:59.853Z,32.59
2018-06-24T11:32:30.521Z,33.24
2018-06-24T11:35:00.264Z,32.57
2018-06-24T11:37:32.229Z,31.25
2018-06-24T11:40:01.910Z,30.73
2018-06-24T11:42:31.579Z,31.30
2018-06-24T11:45:01.905Z,32.31
2018-06-24T11:47:31.654Z,31.74
2018-06-24T11:50:02.136Z,33.59
2018-06-24T11:52:32.167Z,31.98
2018-06-24T11:55:05.640Z,32.73
2018-06-24T11:57:35.459Z,31.62
2018-06-24T12:00:06.993Z,31.27
2018-06-24T12:02:37.254Z,33.02
2018-06-24T12:05:06.931Z,31.76
2018-06-24T12:07:36.568Z,30.61
2018-06-24T12:10:07.076Z,30.09
2018-06-24T12:15:12.570Z,29.37
2018-06-24T12:17:42.165Z,29.73
2018-06-24T12:20:11.889Z,28.54
2018-06-24T12:22:44.964Z,30.69
2018-06-24T12:25:14.841Z,29.46
2018-06-24T12:27:44.501Z,31.93
2018-06-24T12:30:14.171Z,31.11
2018-06-24T12:32:43.933Z,29.09
2018-06-24T12:35:13.683Z,28.85
2018-06-24T12:37:43.354Z,29.86
2018-06-24T12:40:23.798Z,28.39
2018-06-24T12:42:53.597Z,30.28
2018-06-24T12:45:23.434Z,29.58
2018-06-24T12:47:53.124Z,28.52
2018-06-24T12:50:23.058Z,31.53
2018-06-24T12:52:53.078Z,31.70
2018-06-24T12:55:22.730Z,29.85
2018-06-24T12:57:52.513Z,33.30
2018-06-24T13:00:22.650Z,27.81
2018-06-24T13:02:51.914Z,29.31
2018-06-24T13:05:21.545Z,31.86
2018-06-24T13:07:51.243Z,28.95
2018-06-24T13:10:20.853Z,30.72
2018-06-24T13:12:50.466Z,31.29
2018-06-24T13:15:20.376Z,30.31
2018-06-24T13:17:49.979Z,30.00
2018-06-24T13:20:19.620Z,28.99
2018-06-24T13:22:49.243Z,29.21
2018-06-24T13:25:19.433Z,29.92
2018-06-24T13:27:49.095Z,28.76
2018-06-24T13:30:18.751Z,29.61
2018-06-24T13:32:48.375Z,26.86
2018-06-24T13:35:18.258Z,26.62
2018-06-24T13:37:48.095Z,27.23
2018-06-24T13:40:17.847Z,28.33
2018-06-24T13:42:47.521Z,27.95
2018-06-24T13:45:17.177Z,28.05
2018-06-24T13:47:46.865Z,28.78
2018-06-24T13:50:16.790Z,28.81
2018-06-24T13:52:47.065Z,29.07
2018-06-24T13:55:16.693Z,28.69
2018-06-24T13:57:46.288Z,28.02
2018-06-24T14:00:22.018Z,27.11
2018-06-24T14:02:51.829Z,26.89
2018-06-24T14:05:21.457Z,26.47
2018-06-24T14:07:51.288Z,26.14
2018-06-24T14:10:21.028Z,28.78
2018-06-24T14:12:52.327Z,31.02
2018-06-24T14:15:22.703Z,29.44
2018-06-24T14:17:52.465Z,28.11
2018-06-24T14:20:22.306Z,28.50
2018-06-24T14:22:52.009Z,30.59
2018-06-24T14:25:21.869Z,29.07
2018-06-24T14:27:52.577Z,29.50
2018-06-24T14:30:22.219Z,29.15
2018-06-24T14:32:52.036Z,27.96
2018-06-24T14:35:21.669Z,27.54
2018-06-24T14:37:51.412Z,26.30
2018-06-24T14:40:21.322Z,27.75
2018-06-24T14:42:50.959Z,28.32
2018-06-24T14:45:20.622Z,27.80
2018-06-24T14:47:50.262Z,27.27
2018-06-24T14:50:19.951Z,26.23
2018-06-24T14:52:49.639Z,25.30
2018-06-24T14:57:54.690Z,27.29
2018-06-24T15:00:24.277Z,24.46
2018-06-24T15:02:54.164Z,26.52
2018-06-24T15:05:24.513Z,26.11
2018-06-24T15:07:54.238Z,24.58
2018-06-24T15:10:24.013Z,26.62
2018-06-24T15:12:53.945Z,26.64
2018-06-24T15:15:23.778Z,25.70
2018-06-24T15:17:53.509Z,26.52
2018-06-24T15:20:23.212Z,26.47
2018-06-24T15:22:52.793Z,25.58
2018-06-24T15:25:22.385Z,26.06
2018-06-24T15:27:52.029Z,26.13
2018-06-24T15:30:21.734Z,24.03
2018-06-24T15:32:51.723Z,26.60
2018-06-24T15:35:21.389Z,26.32
2018-06-24T15:37:51.101Z,27.00
2018-06-24T15:40:20.877Z,30.87
2018-06-24T15:42:56.948Z,30.92
2018-06-24T15:45:26.756Z,30.80
2018-06-24T15:47:56.571Z,31.09
2018-06-24T15:50:26.217Z,33.42
2018-06-24T15:52:55.848Z,32.56
2018-06-24T15:55:25.438Z,33.64
2018-06-24T15:57:55.316Z,33.16
2018-06-24T16:00:25.284Z,33.62
2018-06-24T16:02:55.100Z,33.92
2018-06-24T16:05:24.768Z,34.73
2018-06-24T16:07:54.386Z,33.35
2018-06-24T16:10:24.013Z,33.26
2018-06-24T16:12:53.644Z,33.65
2018-06-24T16:15:23.296Z,33.84
2018-06-24T16:17:52.936Z,34.97
2018-06-24T16:20:22.653Z,34.77
2018-06-24T16:22:52.392Z,34.08
2018-06-24T16:25:21.842Z,33.99
2018-06-24T16:27:51.551Z,34.88
2018-06-24T16:30:21.109Z,34.44
2018-06-24T16:32:51.940Z,35.10
2018-06-24T16:35:21.713Z,35.53
2018-06-24T16:37:51.379Z,34.89
2018-06-24T16:40:21.021Z,33.85
2018-06-24T16:42:50.639Z,35.92
2018-06-24T16:45:20.377Z,35.03
2018-06-24T16:47:50.073Z,35.30
2018-06-24T16:50:19.688Z,33.56
2018-06-24T16:52:49.477Z,35.98
2018-06-24T16:55:19.196Z,34.75
2018-06-24T16:57:48.820Z,35.68
2018-06-24T17:00:18.383Z,35.64
2018-06-24T17:02:48.279Z,34.83
2018-06-24T17:05:17.863Z,34.95
2018-06-24T17:07:47.669Z,34.45
2018-06-24T17:10:17.494Z,35.44
2018-06-24T17:12:47.292Z,35.93
2018-06-24T17:15:16.989Z,36.64
2018-06-24T17:17:46.608Z,36.76
2018-06-24T17:20:16.356Z,37.39
2018-06-24T17:22:46.477Z,36.32
2018-06-24T17:25:16.034Z,37.86
2018-06-24T17:27:45.821Z,36.24
2018-06-24T17:30:18.603Z,37.80
2018-06-24T17:32:48.280Z,37.73
2018-06-24T17:35:18.044Z,37.42
2018-06-24T17:40:23.450Z,37.24
2018-06-24T17:42:53.319Z,36.88
2018-06-24T17:45:22.996Z,38.49
2018-06-24T17:50:32.128Z,36.56
2018-06-24T17:53:02.351Z,38.76
2018-06-24T17:55:32.152Z,37.79
2018-06-24T17:58:02.392Z,37.20
2018-06-24T18:00:33.106Z,37.35
2018-06-24T18:03:02.753Z,37.04
2018-06-24T18:05:32.670Z,37.38
2018-06-24T18:08:02.827Z,37.45
2018-06-24T18:10:32.441Z,37.81
2018-06-24T18:13:02.158Z,37.67
2018-06-24T18:15:31.990Z,38.51
2018-06-24T18:18:01.728Z,37.31
2018-06-24T18:20:32.416Z,37.71
2018-06-24T18:23:02.085Z,39.80
2018-06-24T18:25:33.104Z,38.78
2018-06-24T18:28:04.001Z,39.14
2018-06-24T18:30:34.526Z,38.77
2018-06-24T18:33:04.925Z,38.87
2018-06-24T18:35:35.125Z,38.02
2018-06-24T18:38:04.991Z,39.22
2018-06-24T18:40:34.805Z,38.46
2018-06-24T18:43:04.518Z,39.13
2018-06-24T18:45:34.161Z,38.88
2018-06-24T18:48:04.840Z,40.21
2018-06-24T18:50:34.653Z,40.75
2018-06-24T18:58:15.801Z,40.06
2018-06-24T19:00:45.595Z,41.46
2018-06-24T19:03:15.380Z,41.61
2018-06-24T19:05:45.069Z,41.05
2018-06-24T19:08:14.852Z,41.52
2018-06-24T19:10:44.576Z,41.07
2018-06-24T19:13:14.203Z,42.07
2018-06-24T19:15:44.013Z,42.85
2018-06-24T19:18:14.129Z,43.20
2018-06-24T19:20:43.783Z,43.69
2018-06-24T19:23:14.160Z,43.71
2018-06-24T19:25:43.973Z,43.81
2018-06-24T19:28:14.779Z,44.02
2018-06-24T19:30:44.632Z,43.76
2018-06-24T19:33:14.275Z,44.22
2018-06-24T19:35:43.905Z,45.09
2018-06-24T19:38:13.524Z,44.63
2018-06-24T19:40:43.264Z,44.94
2018-06-24T19:43:13.179Z,44.84
2018-06-24T19:45:42.807Z,44.72
2018-06-24T19:48:15.914Z,45.18
2018-06-24T19:50:45.809Z,44.85
2018-06-24T19:53:15.452Z,45.08
2018-06-24T20:00:58.813Z,45.63
2018-06-24T20:03:28.477Z,46.39
2018-06-24T20:05:58.275Z,46.41
2018-06-24T20:08:28.014Z,46.20
2018-06-24T20:10:57.741Z,47.17
2018-06-24T20:13:28.036Z,47.46
2018-06-24T20:16:01.516Z,47.20
2018-06-24T20:18:31.612Z,47.79
2018-06-24T20:21:02.221Z,47.55
2018-06-24T20:23:34.958Z,48.02
2018-06-24T20:26:05.215Z,48.14
2018-06-24T20:28:34.908Z,48.92
2018-06-24T20:31:05.440Z,47.95
2018-06-24T20:33:35.988Z,48.44
2018-06-24T20:36:05.872Z,48.33
2018-06-24T20:38:35.598Z,46.81
2018-06-24T20:41:06.484Z,47.17
2018-06-24T20:43:37.977Z,46.98
2018-06-24T20:46:07.607Z,47.17
2018-06-24T20:48:37.207Z,47.81
2018-06-24T20:51:07.478Z,47.78
2018-06-24T20:53:37.173Z,47.73
2018-06-24T20:56:07.509Z,47.54
2018-06-24T20:58:37.596Z,47.84
2018-06-24T21:01:07.964Z,47.33
2018-06-24T21:03:37.743Z,47.13
2018-06-24T21:06:12.228Z,47.71
2018-06-24T21:08:42.007Z,48.61
2018-06-24T21:11:11.605Z,48.06
2018-06-24T21:13:41.914Z,48.25
2018-06-24T21:16:12.397Z,47.89
2018-06-24T21:18:43.968Z,47.70
2018-06-24T21:21:14.624Z,48.62
2018-06-24T21:28:55.604Z,48.82
2018-06-24T21:31:25.208Z,48.71
2018-06-24T21:33:54.887Z,49.23
2018-06-24T21:36:24.670Z,48.63
2018-06-24T21:38:54.329Z,49.43
2018-06-24T21:41:24.009Z,49.12
2018-06-24T21:43:53.629Z,49.57
2018-06-24T21:46:23.293Z,49.97
2018-06-24T21:48:52.986Z,49.20
2018-06-24T21:51:22.593Z,49.12
2018-06-24T21:53:52.293Z,49.16
2018-06-24T21:56:21.858Z,49.07
2018-06-24T21:58:51.804Z,49.00
2018-06-24T22:01:21.416Z,49.55
2018-06-24T22:03:51.072Z,51.35
2018-06-24T22:06:20.681Z,53.85
2018-06-24T22:08:50.295Z,55.23
2018-06-24T22:11:19.920Z,58.40
2018-06-24T22:13:49.590Z,56.02
2018-06-24T22:16:19.573Z,57.52
2018-06-24T22:18:49.160Z,60.17
2018-06-24T22:21:18.808Z,59.00
2018-06-24T22:23:49.284Z,58.88
2018-06-24T22:26:18.919Z,58.67
2018-06-24T22:28:51.198Z,60.60
2018-06-24T22:31:21.152Z,59.24
2018-06-24T22:33:52.229Z,58.86
2018-06-24T22:36:22.040Z,59.76
2018-06-24T22:38:51.764Z,60.55
2018-06-24T22:41:21.549Z,60.13
2018-06-24T22:43:51.241Z,60.48
2018-06-24T22:46:20.822Z,60.37
2018-06-24T22:48:50.494Z,59.96
2018-06-24T22:53:56.630Z,60.39
2018-06-24T22:56:26.261Z,61.09
2018-06-24T22:59:10.593Z,60.54
2018-06-24T23:01:40.184Z,61.18
2018-06-24T23:04:09.718Z,60.52
2018-06-24T23:06:39.328Z,60.24
2018-06-24T23:09:09.183Z,60.44
2018-06-24T23:11:38.745Z,60.31
2018-06-24T23:14:08.426Z,61.18
2018-06-24T23:16:38.372Z,61.53
2018-06-24T23:19:08.022Z,61.69
2018-06-24T23:21:37.767Z,61.89
2018-06-24T23:24:07.344Z,62.05
2018-06-24T23:29:11.953Z,61.01
2018-06-24T23:31:41.525Z,61.65
2018-06-24T23:34:11.175Z,62.14
2018-06-24T23:36:40.879Z,62.85
2018-06-24T23:39:10.740Z,62.47
2018-06-24T23:46:51.186Z,61.95
2018-06-24T23:49:20.840Z,62.64
2018-06-24T23:51:50.430Z,62.43
2018-06-24T23:54:20.124Z,61.57
2018-06-24T23:56:49.897Z,62.17
2018-06-24T23:59:19.497Z,62.17
